North Hessary Tor, United Kingdom

1:17 AM BST on July 07, 2015 (GMT +0100)
Princetown, Dartmoor | | Change Station
CLOSE
Current Station
Personal Weather Station
Location: Princetown,
Elevation: 1444 ft
Nearby Weather Stations

Elev 1444 ft 50.55 °N, 4.00 °W | Updated 19 seconds ago

Drizzle
Drizzle
57.9 °F
Feels Like 57.9 °F
N
12.0
Wind Variable Wind from SE
Gusts 18.0 mph

Today
High -- | Low -- °F
--% Chance of Precip.
Yesterday
High -- | Low -- °F
Precip. -- in
5:12 AM 9:28 PM
Waning Gibbous, 71% visible
Pressure 29.89 in
Visibility 6.2 miles
Clouds Scattered Clouds 1300 ft
Scattered Clouds 2500 ft
Dew Point 52 °F
Humidity 82%
Rainfall 0.05 in
Snow Depth Not available.
UV 0 out of 12
Pollen Not available.
Air Quality Not available.
Flu Activity Not available.
METAR EGTE 062350Z 19010KT 9999 DZ SCT013 SCT025 16/16 Q1012

More Conditions Fewer Conditions

Pressure 29.89 in
Visibility 6.2 miles
Clouds Scattered Clouds 1300 ft
Scattered Clouds 2500 ft
Dew Point 52 °F
Humidity 82%
Rainfall 0.05 in
Snow Depth Not available.
UV 0 out of 12
Pollen Not available.
Air Quality Not available.
Flu Activity Not available.
METAR EGTE 062350Z 19010KT 9999 DZ SCT013 SCT025 16/16 Q1012

More Conditions Fewer Conditions

10-Day Weather Forecast

×

Almanac

Astronomy

Jul. 07, 2015 Rise Set
Actual Time
Civil Twilight
Nautical Twilight
Astronomical Twilight
Moon
Length of Visible Light
Length of Day
Tomorrow will be .
, % of the Moon is Illuminated

Today's Extremes

Country Highs Country Lows

Community

WunderPhotos

Upload Photos

1,835,692 photos uploaded!

WunderBlogs® & News

Nearby

Air Quality

  Air Quality AQ Index Pollutant
Not available.

Snow Depth

Station Depth Elevation

Earthquake Activity

City Distance Mag. Time & Date
Minimum magnitude displayed is 2.5.

Coastal Water Temperatures

Place Temperature

Stations

Nearby Weather Stations

Station Location Temp. Windchill Dew Point Humidity Wind Precip. Elev Updated Type